Airfield :
LOGIN :

Register | Disclaimer

   EN    FR    IT 

 










Legend :    VFR   Marginal VFR   IFR   Intensive IFR   Very Intensive IFR
Visi :
Ceiling :
>= 8 km
>= 3000ft
5 to 8 km
1000 to 3000 ft
1500m to 5 km
500 to 1000 ft
800 to 1500m
200 to 500 ft
< 800m
< 200 ft
Symbols :   Thunderstorms  Fog  Heavy snow  Heavy precipitations  Wind > 20 kt
SIGMETs :     Misc.  Thunderstorms  Icing  Turbulence  Mountain Waves  Volcanic Ashes







- Airport Elevation : 32 ft
- IATA code : LKZ


EGUL - RAF Lakenheath

CURRENT METAR :
  • 180701Z AUTO 30029G40KT 9999 SQ BKN027 OVC033 05/04 A2929 RMK AO2 BKN V OVC PRESRR SLP922 $

EXPIRED METARs :
  • 180649Z AUTO 29032G47KT 9999 SQ OVC027 06/04 A2925 RMK AO2 SLP909 $
  • 180637Z AUTO 28036G46KT 9999 SQ OVC029 06/05 A2923 RMK AO2 SLP902 $
  • 180556Z AUTO 28039G52KT 9999 SCT037 08/04 A2914 RMK AO2 PK WND 27054/22 PRESRR SLP871 60003 T00760044 10106 20039 53013 $
  • 180502Z AUTO 26042G51KT 9999 SQ FEW050 10/06 A2906 RMK AO2 SLP844 $
  • 180455Z AUTO 26036G47KT 9999 SQ SCT050 10/05 A2906 RMK AO2 SLP844 $
  • 180449Z 26030G47KT 9999 SCT050 10/06 A2906 RMK AO2A SLP844 $
  • 180428Z AUTO 26026G38KT 9999 SQ SCT049 BKN060 11/08 A2906 RMK AO2 SLP844 $

TAF AMD TAF EGUL
Valid from the 18 at 06:00 until the 19 at 10:00 UTC


180627Z 1806/1910 27035G50KT 9999 BKN025 530003 QNH2905INS
TEMPO 1806/1808 27025G35KT 510003
BECMG 1807/1808 27025G35KT 9999 BKN025 510003 QNH2910INS
BECMG 1809/1810 28015G25KT 9999 BKN020 QNH2938INS
BECMG 1816/1817 25012G25KT 8000 -SHRA SCT015 BKN020 QNH2953INS
BECMG 1903/1904 26012G20KT 9999 NSW SCT020 QNH2968INS TX11/1806Z TN00/1904Z
No reported NOTAMs for that airfield.
1 SIGMET reported for the London FIR (EGTT) :
 
Severe turbulence
EGTT SIGMET 04 VALID 180640/181030 EGRR
EGTT LONDON FIR SEV TURB FCST E OF LINE N4955 W00225 - N5500 W00311 SFC/FL060 MOV E 45KT INTSF=



MET'MAP, your aeronautical weather chart ! - Copyright ORBIFLY December 2007 - Disclaimer

ORBIFLY MET'MAP TEAM :

Programming & Development : Alexandra Zaïnal
Concept & Development : Baudouin d'Aumeries
Co-Development & Prog : Marc-Olivier Méhu
Technical & hardware support : Manuel Goepfert

Contact : metmap@orbifly.com




SOURCES & CREDITS :

   NOAA